sensor_id;sensor_type;location;lat;lon;timestamp;P1;durP1;ratioP1;P2;durP2;ratioP2
25437;SDS011;13364;49.084;9.978;2024-02-21T06:46:23;3.58;;;2.55;;
25437;SDS011;13364;49.084;9.978;2024-02-21T06:48:55;4.00;;;2.03;;
25437;SDS011;13364;49.084;9.978;2024-02-21T06:51:24;6.40;;;2.72;;
25437;SDS011;13364;49.084;9.978;2024-02-21T06:53:53;8.60;;;2.88;;
25437;SDS011;13364;49.084;9.978;2024-02-21T06:56:22;2.92;;;2.13;;
25437;SDS011;13364;49.084;9.978;2024-02-21T06:58:55;7.30;;;2.53;;
25437;SDS011;13364;49.084;9.978;2024-02-21T07:01:22;7.20;;;2.38;;
25437;SDS011;13364;49.084;9.978;2024-02-21T07:03:49;3.80;;;2.55;;
25437;SDS011;13364;49.084;9.978;2024-02-21T07:06:16;3.55;;;2.22;;
25437;SDS011;13364;49.084;9.978;2024-02-21T07:08:43;3.67;;;2.38;;
25437;SDS011;13364;49.084;9.978;2024-02-21T07:11:10;7.10;;;2.60;;
25437;SDS011;13364;49.084;9.978;2024-02-21T07:13:37;5.25;;;2.88;;
25437;SDS011;13364;49.084;9.978;2024-02-21T07:16:04;8.75;;;2.78;;
25437;SDS011;13364;49.084;9.978;2024-02-21T07:18:32;4.90;;;2.40;;
25437;SDS011;13364;49.084;9.978;2024-02-21T07:20:59;4.85;;;2.70;;
25437;SDS011;13364;49.084;9.978;2024-02-21T07:23:26;5.10;;;2.60;;
25437;SDS011;13364;49.084;9.978;2024-02-21T07:25:53;6.80;;;2.85;;
25437;SDS011;13364;49.084;9.978;2024-02-21T07:28:20;5.68;;;2.63;;
25437;SDS011;13364;49.084;9.978;2024-02-21T07:30:46;4.80;;;2.65;;
25437;SDS011;13364;49.084;9.978;2024-02-21T07:33:13;4.47;;;2.50;;
25437;SDS011;13364;49.084;9.978;2024-02-21T07:35:40;3.33;;;2.47;;
25437;SDS011;13364;49.084;9.978;2024-02-21T07:38:08;5.45;;;2.50;;
25437;SDS011;13364;49.084;9.978;2024-02-21T07:40:38;5.53;;;2.40;;
25437;SDS011;13364;49.084;9.978;2024-02-21T07:43:05;7.40;;;2.80;;
25437;SDS011;13364;49.084;9.978;2024-02-21T07:45:32;6.90;;;2.20;;
25437;SDS011;13364;49.084;9.978;2024-02-21T07:47:59;8.75;;;2.88;;
25437;SDS011;13364;49.084;9.978;2024-02-21T07:50:26;6.95;;;2.80;;
25437;SDS011;13364;49.084;9.978;2024-02-21T07:52:54;6.65;;;3.08;;
25437;SDS011;13364;49.084;9.978;2024-02-21T07:55:21;5.05;;;2.58;;
25437;SDS011;13364;49.084;9.978;2024-02-21T07:57:48;5.22;;;2.33;;
25437;SDS011;13364;49.084;9.978;2024-02-21T08:00:15;4.68;;;2.40;;
25437;SDS011;13364;49.084;9.978;2024-02-21T08:02:47;4.07;;;2.15;;
25437;SDS011;13364;49.084;9.978;2024-02-21T08:05:15;4.88;;;2.03;;
25437;SDS011;13364;49.084;9.978;2024-02-21T08:07:41;2.53;;;1.80;;
25437;SDS011;13364;49.084;9.978;2024-02-21T08:10:08;3.72;;;2.15;;
25437;SDS011;13364;49.084;9.978;2024-02-21T08:12:35;6.30;;;2.83;;
25437;SDS011;13364;49.084;9.978;2024-02-21T08:15:02;3.22;;;1.90;;
25437;SDS011;13364;49.084;9.978;2024-02-21T08:17:30;7.55;;;2.28;;
25437;SDS011;13364;49.084;9.978;2024-02-21T08:19:57;4.28;;;2.22;;
25437;SDS011;13364;49.084;9.978;2024-02-21T08:22:23;2.72;;;2.15;;
25437;SDS011;13364;49.084;9.978;2024-02-21T08:24:52;7.55;;;2.20;;
25437;SDS011;13364;49.084;9.978;2024-02-21T08:27:19;4.80;;;1.77;;
25437;SDS011;13364;49.084;9.978;2024-02-21T08:29:46;4.30;;;2.50;;
25437;SDS011;13364;49.084;9.978;2024-02-21T08:32:13;7.60;;;2.25;;
25437;SDS011;13364;49.084;9.978;2024-02-21T08:34:40;7.43;;;1.90;;
25437;SDS011;13364;49.084;9.978;2024-02-21T08:37:06;5.10;;;2.10;;
25437;SDS011;13364;49.084;9.978;2024-02-21T08:39:34;6.88;;;2.35;;
25437;SDS011;13364;49.084;9.978;2024-02-21T08:42:01;7.78;;;2.70;;
25437;SDS011;13364;49.084;9.978;2024-02-21T08:44:28;6.38;;;2.33;;
25437;SDS011;13364;49.084;9.978;2024-02-21T08:46:55;5.88;;;2.67;;
25437;SDS011;13364;49.084;9.978;2024-02-21T08:49:22;5.07;;;2.10;;
25437;SDS011;13364;49.084;9.978;2024-02-21T08:51:51;8.02;;;1.90;;
25437;SDS011;13364;49.084;9.978;2024-02-21T08:54:18;5.20;;;2.00;;
25437;SDS011;13364;49.084;9.978;2024-02-21T08:56:45;5.38;;;2.17;;
25437;SDS011;13364;49.084;9.978;2024-02-21T08:59:12;3.58;;;1.77;;
25437;SDS011;13364;49.084;9.978;2024-02-21T09:01:40;6.93;;;1.90;;
25437;SDS011;13364;49.084;9.978;2024-02-21T09:04:06;4.10;;;1.75;;
25437;SDS011;13364;49.084;9.978;2024-02-21T09:06:34;4.47;;;1.83;;
25437;SDS011;13364;49.084;9.978;2024-02-21T09:11:30;4.50;;;1.75;;
25437;SDS011;13364;49.084;9.978;2024-02-21T09:13:57;4.25;;;1.85;;
25437;SDS011;13364;49.084;9.978;2024-02-21T09:16:24;4.30;;;1.60;;
25437;SDS011;13364;49.084;9.978;2024-02-21T09:18:51;5.00;;;1.98;;
25437;SDS011;13364;49.084;9.978;2024-02-21T09:21:19;8.40;;;1.90;;
25437;SDS011;13364;49.084;9.978;2024-02-21T09:23:45;10.65;;;2.58;;
25437;SDS011;13364;49.084;9.978;2024-02-21T09:26:12;5.68;;;1.63;;
25437;SDS011;13364;49.084;9.978;2024-02-21T09:28:42;2.80;;;1.25;;
25437;SDS011;13364;49.084;9.978;2024-02-21T09:31:10;10.23;;;4.07;;
25437;SDS011;13364;49.084;9.978;2024-02-21T09:33:37;4.50;;;1.60;;
25437;SDS011;13364;49.084;9.978;2024-02-21T09:36:05;3.85;;;1.52;;
25437;SDS011;13364;49.084;9.978;2024-02-21T09:38:32;7.13;;;1.63;;
25437;SDS011;13364;49.084;9.978;2024-02-21T09:41:11;2.45;;;1.17;;
25437;SDS011;13364;49.084;9.978;2024-02-21T09:43:50;4.90;;;1.63;;
25437;SDS011;13364;49.084;9.978;2024-02-21T09:46:24;3.67;;;1.50;;
25437;SDS011;13364;49.084;9.978;2024-02-21T09:49:21;4.10;;;1.50;;
25437;SDS011;13364;49.084;9.978;2024-02-21T09:52:03;2.28;;;1.40;;
25437;SDS011;13364;49.084;9.978;2024-02-21T09:54:32;8.18;;;1.70;;
25437;SDS011;13364;49.084;9.978;2024-02-21T09:57:00;5.43;;;1.63;;
25437;SDS011;13364;49.084;9.978;2024-02-21T09:59:28;5.13;;;1.63;;
25437;SDS011;13364;49.084;9.978;2024-02-21T10:01:57;5.53;;;1.50;;
25437;SDS011;13364;49.084;9.978;2024-02-21T10:04:29;5.80;;;1.70;;
25437;SDS011;13364;49.084;9.978;2024-02-21T10:06:56;4.57;;;2.03;;
25437;SDS011;13364;49.084;9.978;2024-02-21T10:09:24;6.40;;;1.80;;
25437;SDS011;13364;49.084;9.978;2024-02-21T10:12:10;6.28;;;2.03;;
25437;SDS011;13364;49.084;9.978;2024-02-21T10:14:39;4.32;;;1.48;;
25437;SDS011;13364;49.084;9.978;2024-02-21T10:17:06;4.53;;;1.45;;
25437;SDS011;13364;49.084;9.978;2024-02-21T10:19:37;3.70;;;1.20;;
25437;SDS011;13364;49.084;9.978;2024-02-21T10:22:09;4.03;;;1.63;;
25437;SDS011;13364;49.084;9.978;2024-02-21T10:24:37;3.45;;;1.70;;
25437;SDS011;13364;49.084;9.978;2024-02-21T10:27:10;5.30;;;1.50;;
25437;SDS011;13364;49.084;9.978;2024-02-21T10:29:39;5.32;;;1.52;;
25437;SDS011;13364;49.084;9.978;2024-02-21T10:32:10;3.00;;;1.30;;
25437;SDS011;13364;49.084;9.978;2024-02-21T10:34:41;3.47;;;1.70;;
25437;SDS011;13364;49.084;9.978;2024-02-21T10:37:10;8.93;;;2.00;;
25437;SDS011;13364;49.084;9.978;2024-02-21T10:39:38;5.93;;;2.00;;
25437;SDS011;13364;49.084;9.978;2024-02-21T10:42:06;3.00;;;1.65;;
25437;SDS011;13364;49.084;9.978;2024-02-21T10:44:38;4.95;;;1.75;;
25437;SDS011;13364;49.084;9.978;2024-02-21T10:47:07;5.57;;;1.48;;
25437;SDS011;13364;49.084;9.978;2024-02-21T10:49:39;4.50;;;1.80;;
25437;SDS011;13364;49.084;9.978;2024-02-21T10:55:00;6.93;;;1.73;;
25437;SDS011;13364;49.084;9.978;2024-02-21T11:04:56;4.70;;;1.42;;
25437;SDS011;13364;49.084;9.978;2024-02-21T11:07:24;2.97;;;1.40;;
25437;SDS011;13364;49.084;9.978;2024-02-21T11:10:02;2.38;;;1.42;;
25437;SDS011;13364;49.084;9.978;2024-02-21T11:12:32;6.10;;;1.40;;
25437;SDS011;13364;49.084;9.978;2024-02-21T11:15:03;3.20;;;1.33;;
25437;SDS011;13364;49.084;9.978;2024-02-21T11:17:33;7.10;;;1.77;;
25437;SDS011;13364;49.084;9.978;2024-02-21T11:20:13;2.40;;;1.20;;
25437;SDS011;13364;49.084;9.978;2024-02-21T11:22:41;5.85;;;1.25;;
25437;SDS011;13364;49.084;9.978;2024-02-21T11:25:08;4.00;;;1.58;;
25437;SDS011;13364;49.084;9.978;2024-02-21T11:27:37;3.00;;;1.25;;
25437;SDS011;13364;49.084;9.978;2024-02-21T11:30:05;2.50;;;1.20;;
25437;SDS011;13364;49.084;9.978;2024-02-21T11:32:32;4.70;;;1.40;;
25437;SDS011;13364;49.084;9.978;2024-02-21T11:35:02;3.45;;;1.50;;
25437;SDS011;13364;49.084;9.978;2024-02-21T11:37:34;3.38;;;1.58;;
25437;SDS011;13364;49.084;9.978;2024-02-21T11:40:06;4.95;;;1.75;;
25437;SDS011;13364;49.084;9.978;2024-02-21T11:42:36;3.78;;;1.70;;
25437;SDS011;13364;49.084;9.978;2024-02-21T11:45:03;7.38;;;1.88;;
25437;SDS011;13364;49.084;9.978;2024-02-21T11:47:30;1.75;;;1.20;;
25437;SDS011;13364;49.084;9.978;2024-02-21T11:49:57;2.78;;;1.38;;
25437;SDS011;13364;49.084;9.978;2024-02-21T11:52:25;2.50;;;1.05;;
25437;SDS011;13364;49.084;9.978;2024-02-21T11:54:53;3.22;;;1.10;;
25437;SDS011;13364;49.084;9.978;2024-02-21T11:57:22;4.43;;;1.43;;
25437;SDS011;13364;49.084;9.978;2024-02-21T11:59:48;3.58;;;1.48;;
25437;SDS011;13364;49.084;9.978;2024-02-21T12:02:23;2.83;;;1.23;;
25437;SDS011;13364;49.084;9.978;2024-02-21T12:04:50;3.30;;;1.45;;
25437;SDS011;13364;49.084;9.978;2024-02-21T12:07:18;4.55;;;1.30;;
25437;SDS011;13364;49.084;9.978;2024-02-21T12:09:45;1.80;;;1.23;;
25437;SDS011;13364;49.084;9.978;2024-02-21T12:12:12;5.20;;;1.30;;
25437;SDS011;13364;49.084;9.978;2024-02-21T12:14:39;4.13;;;1.55;;
25437;SDS011;13364;49.084;9.978;2024-02-21T12:17:06;4.68;;;1.15;;
25437;SDS011;13364;49.084;9.978;2024-02-21T12:19:33;3.05;;;1.30;;
25437;SDS011;13364;49.084;9.978;2024-02-21T12:22:01;4.20;;;1.55;;
25437;SDS011;13364;49.084;9.978;2024-02-21T12:24:32;2.85;;;1.02;;
25437;SDS011;13364;49.084;9.978;2024-02-21T12:26:59;2.35;;;1.13;;
25437;SDS011;13364;49.084;9.978;2024-02-21T12:29:26;3.10;;;1.15;;
25437;SDS011;13364;49.084;9.978;2024-02-21T12:31:55;2.15;;;1.08;;
25437;SDS011;13364;49.084;9.978;2024-02-21T12:34:23;5.10;;;1.02;;
25437;SDS011;13364;49.084;9.978;2024-02-21T12:37:04;4.00;;;1.10;;
25437;SDS011;13364;49.084;9.978;2024-02-21T12:39:30;3.78;;;1.17;;
25437;SDS011;13364;49.084;9.978;2024-02-21T12:41:59;2.35;;;1.13;;
25437;SDS011;13364;49.084;9.978;2024-02-21T12:44:26;2.88;;;1.48;;
25437;SDS011;13364;49.084;9.978;2024-02-21T12:46:53;0.85;;;0.77;;
25437;SDS011;13364;49.084;9.978;2024-02-21T12:49:21;2.63;;;1.55;;
25437;SDS011;13364;49.084;9.978;2024-02-21T12:51:49;3.50;;;1.20;;
25437;SDS011;13364;49.084;9.978;2024-02-21T12:54:16;4.47;;;1.33;;
25437;SDS011;13364;49.084;9.978;2024-02-21T12:56:42;3.13;;;1.25;;
25437;SDS011;13364;49.084;9.978;2024-02-21T12:59:09;2.83;;;1.15;;
25437;SDS011;13364;49.084;9.978;2024-02-21T13:01:36;4.60;;;1.60;;
25437;SDS011;13364;49.084;9.978;2024-02-21T13:04:04;2.63;;;1.20;;
25437;SDS011;13364;49.084;9.978;2024-02-21T13:06:32;4.57;;;1.60;;
25437;SDS011;13364;49.084;9.978;2024-02-21T13:08:59;1.88;;;0.90;;
25437;SDS011;13364;49.084;9.978;2024-02-21T13:11:29;2.75;;;1.10;;
25437;SDS011;13364;49.084;9.978;2024-02-21T13:13:58;3.40;;;0.88;;
25437;SDS011;13364;49.084;9.978;2024-02-21T13:16:25;4.10;;;1.15;;
25437;SDS011;13364;49.084;9.978;2024-02-21T13:18:53;0.70;;;0.70;;
25437;SDS011;13364;49.084;9.978;2024-02-21T13:21:20;2.78;;;0.80;;
25437;SDS011;13364;49.084;9.978;2024-02-21T13:23:47;2.42;;;1.08;;
25437;SDS011;13364;49.084;9.978;2024-02-21T13:26:14;2.95;;;1.05;;
25437;SDS011;13364;49.084;9.978;2024-02-21T13:28:44;1.48;;;0.77;;
25437;SDS011;13364;49.084;9.978;2024-02-21T13:31:11;2.00;;;0.98;;
25437;SDS011;13364;49.084;9.978;2024-02-21T13:33:42;1.95;;;1.05;;
25437;SDS011;13364;49.084;9.978;2024-02-21T13:36:11;2.80;;;0.88;;
25437;SDS011;13364;49.084;9.978;2024-02-21T13:38:38;2.75;;;0.90;;
25437;SDS011;13364;49.084;9.978;2024-02-21T13:41:05;1.73;;;0.90;;
25437;SDS011;13364;49.084;9.978;2024-02-21T13:43:34;1.50;;;1.10;;
25437;SDS011;13364;49.084;9.978;2024-02-21T13:46:01;1.85;;;0.95;;
25437;SDS011;13364;49.084;9.978;2024-02-21T13:48:36;3.28;;;1.10;;
25437;SDS011;13364;49.084;9.978;2024-02-21T13:51:03;1.15;;;0.93;;
25437;SDS011;13364;49.084;9.978;2024-02-21T13:53:30;1.92;;;0.88;;
25437;SDS011;13364;49.084;9.978;2024-02-21T13:55:57;1.52;;;0.88;;
25437;SDS011;13364;49.084;9.978;2024-02-21T13:58:24;1.45;;;0.88;;
25437;SDS011;13364;49.084;9.978;2024-02-21T14:00:53;2.17;;;0.73;;
25437;SDS011;13364;49.084;9.978;2024-02-21T14:03:22;2.10;;;0.93;;
25437;SDS011;13364;49.084;9.978;2024-02-21T14:05:49;2.75;;;0.90;;
25437;SDS011;13364;49.084;9.978;2024-02-21T14:08:15;2.40;;;1.08;;
25437;SDS011;13364;49.084;9.978;2024-02-21T14:10:42;1.38;;;0.80;;
25437;SDS011;13364;49.084;9.978;2024-02-21T14:13:09;2.92;;;1.20;;
25437;SDS011;13364;49.084;9.978;2024-02-21T14:15:37;0.98;;;0.75;;
25437;SDS011;13364;49.084;9.978;2024-02-21T14:20:35;2.42;;;0.90;;
25437;SDS011;13364;49.084;9.978;2024-02-21T14:23:03;3.28;;;0.90;;
25437;SDS011;13364;49.084;9.978;2024-02-21T14:25:31;1.52;;;1.20;;
25437;SDS011;13364;49.084;9.978;2024-02-21T14:28:00;1.73;;;0.97;;
25437;SDS011;13364;49.084;9.978;2024-02-21T14:30:29;3.97;;;0.93;;
25437;SDS011;13364;49.084;9.978;2024-02-21T14:32:56;3.83;;;1.42;;
25437;SDS011;13364;49.084;9.978;2024-02-21T14:35:23;7.70;;;1.25;;
25437;SDS011;13364;49.084;9.978;2024-02-21T14:37:50;4.05;;;1.20;;
25437;SDS011;13364;49.084;9.978;2024-02-21T14:40:17;2.42;;;0.80;;
25437;SDS011;13364;49.084;9.978;2024-02-21T14:42:45;3.00;;;1.15;;
25437;SDS011;13364;49.084;9.978;2024-02-21T14:45:12;3.30;;;1.27;;
25437;SDS011;13364;49.084;9.978;2024-02-21T14:47:40;2.17;;;1.00;;
25437;SDS011;13364;49.084;9.978;2024-02-21T14:50:06;1.45;;;1.08;;
25437;SDS011;13364;49.084;9.978;2024-02-21T14:52:34;1.63;;;0.82;;
25437;SDS011;13364;49.084;9.978;2024-02-21T14:55:03;3.60;;;1.00;;
25437;SDS011;13364;49.084;9.978;2024-02-21T14:57:31;1.67;;;0.88;;
25437;SDS011;13364;49.084;9.978;2024-02-21T14:59:58;1.98;;;0.90;;
25437;SDS011;13364;49.084;9.978;2024-02-21T15:02:27;3.17;;;1.02;;
25437;SDS011;13364;49.084;9.978;2024-02-21T15:04:55;8.02;;;1.50;;
25437;SDS011;13364;49.084;9.978;2024-02-21T15:07:22;3.10;;;1.13;;
25437;SDS011;13364;49.084;9.978;2024-02-21T15:09:51;1.85;;;0.98;;
25437;SDS011;13364;49.084;9.978;2024-02-21T15:12:18;1.83;;;1.10;;
25437;SDS011;13364;49.084;9.978;2024-02-21T15:14:45;1.92;;;1.00;;
25437;SDS011;13364;49.084;9.978;2024-02-21T15:17:12;2.00;;;0.95;;
25437;SDS011;13364;49.084;9.978;2024-02-21T15:19:39;3.35;;;1.23;;
25437;SDS011;13364;49.084;9.978;2024-02-21T15:22:10;3.80;;;0.88;;
25437;SDS011;13364;49.084;9.978;2024-02-21T15:24:40;2.15;;;1.27;;
25437;SDS011;13364;49.084;9.978;2024-02-21T15:27:07;3.53;;;1.25;;
25437;SDS011;13364;49.084;9.978;2024-02-21T15:29:35;3.65;;;1.30;;
25437;SDS011;13364;49.084;9.978;2024-02-21T15:32:04;2.75;;;1.15;;
25437;SDS011;13364;49.084;9.978;2024-02-21T15:34:32;3.60;;;1.48;;
25437;SDS011;13364;49.084;9.978;2024-02-21T15:36:59;2.25;;;1.30;;
25437;SDS011;13364;49.084;9.978;2024-02-21T15:39:26;2.53;;;1.15;;
25437;SDS011;13364;49.084;9.978;2024-02-21T15:41:54;2.72;;;1.50;;
25437;SDS011;13364;49.084;9.978;2024-02-21T15:44:23;3.33;;;1.60;;
25437;SDS011;13364;49.084;9.978;2024-02-21T15:46:50;2.40;;;1.20;;
25437;SDS011;13364;49.084;9.978;2024-02-21T15:49:19;2.20;;;1.23;;
25437;SDS011;13364;49.084;9.978;2024-02-21T15:51:45;4.88;;;1.20;;
25437;SDS011;13364;49.084;9.978;2024-02-21T15:54:13;3.80;;;1.50;;
25437;SDS011;13364;49.084;9.978;2024-02-21T15:56:47;2.63;;;1.40;;
25437;SDS011;13364;49.084;9.978;2024-02-21T15:59:14;2.65;;;1.33;;
25437;SDS011;13364;49.084;9.978;2024-02-21T16:01:41;2.00;;;1.63;;
25437;SDS011;13364;49.084;9.978;2024-02-21T16:04:09;3.42;;;1.55;;
25437;SDS011;13364;49.084;9.978;2024-02-21T16:06:36;1.92;;;1.60;;
25437;SDS011;13364;49.084;9.978;2024-02-21T16:09:03;2.78;;;1.85;;
25437;SDS011;13364;49.084;9.978;2024-02-21T16:11:35;4.28;;;2.05;;
25437;SDS011;13364;49.084;9.978;2024-02-21T16:14:02;2.53;;;2.03;;
25437;SDS011;13364;49.084;9.978;2024-02-21T16:16:29;7.80;;;1.58;;
25437;SDS011;13364;49.084;9.978;2024-02-21T16:18:57;2.65;;;1.67;;
25437;SDS011;13364;49.084;9.978;2024-02-21T16:21:23;3.17;;;1.52;;
25437;SDS011;13364;49.084;9.978;2024-02-21T16:23:50;2.28;;;1.20;;
25437;SDS011;13364;49.084;9.978;2024-02-21T16:26:17;6.82;;;1.30;;
25437;SDS011;13364;49.084;9.978;2024-02-21T16:28:44;4.47;;;1.33;;
25437;SDS011;13364;49.084;9.978;2024-02-21T16:31:11;2.42;;;1.40;;
25437;SDS011;13364;49.084;9.978;2024-02-21T16:33:38;3.35;;;1.70;;
25437;SDS011;13364;49.084;9.978;2024-02-21T16:36:05;3.75;;;1.52;;
25437;SDS011;13364;49.084;9.978;2024-02-21T16:38:33;3.63;;;1.70;;
25437;SDS011;13364;49.084;9.978;2024-02-21T16:41:05;4.22;;;2.00;;
25437;SDS011;13364;49.084;9.978;2024-02-21T16:43:32;3.50;;;1.35;;
25437;SDS011;13364;49.084;9.978;2024-02-21T16:45:59;1.77;;;1.15;;
25437;SDS011;13364;49.084;9.978;2024-02-21T16:48:26;3.22;;;1.35;;
25437;SDS011;13364;49.084;9.978;2024-02-21T16:50:52;5.00;;;1.52;;
25437;SDS011;13364;49.084;9.978;2024-02-21T16:53:26;4.97;;;2.17;;
25437;SDS011;13364;49.084;9.978;2024-02-21T16:55:53;5.50;;;2.22;;
25437;SDS011;13364;49.084;9.978;2024-02-21T16:58:20;4.72;;;2.10;;
25437;SDS011;13364;49.084;9.978;2024-02-21T17:00:47;3.30;;;2.03;;
25437;SDS011;13364;49.084;9.978;2024-02-21T17:03:14;2.67;;;1.80;;
25437;SDS011;13364;49.084;9.978;2024-02-21T17:05:46;2.30;;;1.90;;
25437;SDS011;13364;49.084;9.978;2024-02-21T17:08:20;3.28;;;2.00;;
25437;SDS011;13364;49.084;9.978;2024-02-21T17:10:47;4.65;;;2.50;;
25437;SDS011;13364;49.084;9.978;2024-02-21T17:13:14;4.15;;;2.20;;
25437;SDS011;13364;49.084;9.978;2024-02-21T17:15:41;6.30;;;3.40;;
25437;SDS011;13364;49.084;9.978;2024-02-21T17:18:08;4.72;;;2.72;;
25437;SDS011;13364;49.084;9.978;2024-02-21T17:20:35;3.92;;;2.13;;
25437;SDS011;13364;49.084;9.978;2024-02-21T17:23:01;5.50;;;2.53;;
25437;SDS011;13364;49.084;9.978;2024-02-21T17:25:29;16.13;;;7.22;;
25437;SDS011;13364;49.084;9.978;2024-02-21T17:27:56;13.23;;;5.60;;
25437;SDS011;13364;49.084;9.978;2024-02-21T17:30:22;13.48;;;6.47;;
25437;SDS011;13364;49.084;9.978;2024-02-21T17:32:51;9.03;;;4.33;;
25437;SDS011;13364;49.084;9.978;2024-02-21T17:35:18;12.32;;;5.13;;
25437;SDS011;13364;49.084;9.978;2024-02-21T17:37:45;8.00;;;4.05;;
25437;SDS011;13364;49.084;9.978;2024-02-21T17:40:12;11.20;;;3.92;;
25437;SDS011;13364;49.084;9.978;2024-02-21T17:42:39;6.95;;;3.70;;
25437;SDS011;13364;49.084;9.978;2024-02-21T17:45:07;7.72;;;3.25;;
25437;SDS011;13364;49.084;9.978;2024-02-21T17:47:34;5.35;;;3.08;;
25437;SDS011;13364;49.084;9.978;2024-02-21T17:50:01;6.72;;;3.35;;
25437;SDS011;13364;49.084;9.978;2024-02-21T17:52:28;20.95;;;9.38;;
25437;SDS011;13364;49.084;9.978;2024-02-21T17:54:55;8.18;;;3.95;;
25437;SDS011;13364;49.084;9.978;2024-02-21T17:57:25;14.05;;;4.93;;
25437;SDS011;13364;49.084;9.978;2024-02-21T17:59:52;11.70;;;4.82;;
25437;SDS011;13364;49.084;9.978;2024-02-21T18:02:20;10.93;;;4.57;;
25437;SDS011;13364;49.084;9.978;2024-02-21T18:04:49;2.88;;;1.63;;
25437;SDS011;13364;49.084;9.978;2024-02-21T18:07:17;7.30;;;1.80;;
25437;SDS011;13364;49.084;9.978;2024-02-21T18:12:13;4.65;;;2.10;;
25437;SDS011;13364;49.084;9.978;2024-02-21T18:14:40;3.03;;;1.67;;
25437;SDS011;13364;49.084;9.978;2024-02-21T18:17:07;4.65;;;2.25;;
25437;SDS011;13364;49.084;9.978;2024-02-21T18:19:34;2.42;;;1.73;;
25437;SDS011;13364;49.084;9.978;2024-02-21T18:22:01;3.45;;;2.30;;
25437;SDS011;13364;49.084;9.978;2024-02-21T18:24:29;3.58;;;2.00;;
25437;SDS011;13364;49.084;9.978;2024-02-21T18:26:56;3.95;;;2.00;;
25437;SDS011;13364;49.084;9.978;2024-02-21T18:29:24;3.00;;;1.75;;
25437;SDS011;13364;49.084;9.978;2024-02-21T18:32:05;4.95;;;2.05;;
25437;SDS011;13364;49.084;9.978;2024-02-21T18:34:35;2.72;;;1.70;;
25437;SDS011;13364;49.084;9.978;2024-02-21T18:37:03;2.95;;;1.85;;
25437;SDS011;13364;49.084;9.978;2024-02-21T18:39:30;2.42;;;1.88;;
25437;SDS011;13364;49.084;9.978;2024-02-21T18:41:57;7.93;;;2.50;;
25437;SDS011;13364;49.084;9.978;2024-02-21T18:44:24;8.90;;;2.78;;
25437;SDS011;13364;49.084;9.978;2024-02-21T18:46:51;3.38;;;1.48;;
25437;SDS011;13364;49.084;9.978;2024-02-21T18:49:18;3.25;;;1.70;;
25437;SDS011;13364;49.084;9.978;2024-02-21T18:51:45;4.15;;;1.75;;
25437;SDS011;13364;49.084;9.978;2024-02-21T18:54:12;2.38;;;1.70;;
25437;SDS011;13364;49.084;9.978;2024-02-21T18:56:43;6.03;;;2.17;;
25437;SDS011;13364;49.084;9.978;2024-02-21T18:59:11;2.35;;;1.70;;
25437;SDS011;13364;49.084;9.978;2024-02-21T19:01:38;6.38;;;2.55;;
25437;SDS011;13364;49.084;9.978;2024-02-21T19:04:05;4.70;;;2.28;;
25437;SDS011;13364;49.084;9.978;2024-02-21T19:06:32;5.32;;;2.00;;
25437;SDS011;13364;49.084;9.978;2024-02-21T19:08:58;3.47;;;1.77;;
25437;SDS011;13364;49.084;9.978;2024-02-21T19:11:25;2.53;;;1.85;;
25437;SDS011;13364;49.084;9.978;2024-02-21T19:13:52;2.20;;;1.95;;
25437;SDS011;13364;49.084;9.978;2024-02-21T19:16:19;3.35;;;1.65;;
25437;SDS011;13364;49.084;9.978;2024-02-21T19:18:46;5.70;;;1.90;;
25437;SDS011;13364;49.084;9.978;2024-02-21T19:21:13;4.00;;;1.80;;
25437;SDS011;13364;49.084;9.978;2024-02-21T19:23:40;2.25;;;1.70;;
25437;SDS011;13364;49.084;9.978;2024-02-21T19:26:08;1.73;;;1.27;;
25437;SDS011;13364;49.084;9.978;2024-02-21T19:28:35;2.13;;;1.42;;
25437;SDS011;13364;49.084;9.978;2024-02-21T19:31:03;2.13;;;1.50;;
25437;SDS011;13364;49.084;9.978;2024-02-21T19:33:31;7.03;;;1.38;;
25437;SDS011;13364;49.084;9.978;2024-02-21T19:35:58;4.32;;;1.88;;
25437;SDS011;13364;49.084;9.978;2024-02-21T19:38:26;4.05;;;1.27;;
25437;SDS011;13364;49.084;9.978;2024-02-21T19:40:53;3.28;;;1.58;;
25437;SDS011;13364;49.084;9.978;2024-02-21T19:43:21;2.78;;;1.45;;
25437;SDS011;13364;49.084;9.978;2024-02-21T19:45:49;2.60;;;1.27;;
25437;SDS011;13364;49.084;9.978;2024-02-21T19:48:16;4.15;;;1.55;;
25437;SDS011;13364;49.084;9.978;2024-02-21T19:50:45;2.43;;;1.30;;
25437;SDS011;13364;49.084;9.978;2024-02-21T19:53:11;2.08;;;1.13;;
25437;SDS011;13364;49.084;9.978;2024-02-21T19:55:39;2.60;;;1.15;;
25437;SDS011;13364;49.084;9.978;2024-02-21T19:58:06;2.63;;;1.15;;
25437;SDS011;13364;49.084;9.978;2024-02-21T20:00:33;2.70;;;1.45;;
25437;SDS011;13364;49.084;9.978;2024-02-21T20:03:00;2.70;;;1.45;;
25437;SDS011;13364;49.084;9.978;2024-02-21T20:05:26;1.30;;;1.20;;
25437;SDS011;13364;49.084;9.978;2024-02-21T20:07:53;5.75;;;2.50;;
25437;SDS011;13364;49.084;9.978;2024-02-21T20:10:20;3.38;;;1.90;;
25437;SDS011;13364;49.084;9.978;2024-02-21T20:12:47;2.63;;;1.42;;
25437;SDS011;13364;49.084;9.978;2024-02-21T20:15:15;1.60;;;1.40;;
25437;SDS011;13364;49.084;9.978;2024-02-21T20:17:42;2.10;;;1.23;;
25437;SDS011;13364;49.084;9.978;2024-02-21T20:20:13;1.38;;;1.10;;
25437;SDS011;13364;49.084;9.978;2024-02-21T20:22:41;5.38;;;1.88;;
25437;SDS011;13364;49.084;9.978;2024-02-21T20:25:08;2.08;;;1.30;;
25437;SDS011;13364;49.084;9.978;2024-02-21T20:27:36;2.17;;;1.55;;
25437;SDS011;13364;49.084;9.978;2024-02-21T20:30:03;3.05;;;1.60;;
25437;SDS011;13364;49.084;9.978;2024-02-21T20:32:34;2.92;;;1.73;;
25437;SDS011;13364;49.084;9.978;2024-02-21T20:35:01;1.98;;;1.13;;
25437;SDS011;13364;49.084;9.978;2024-02-21T20:37:29;3.88;;;1.50;;
25437;SDS011;13364;49.084;9.978;2024-02-21T20:39:56;2.67;;;1.30;;
25437;SDS011;13364;49.084;9.978;2024-02-21T20:42:23;3.28;;;1.52;;
25437;SDS011;13364;49.084;9.978;2024-02-21T20:44:51;5.00;;;2.42;;
25437;SDS011;13364;49.084;9.978;2024-02-21T20:47:19;1.55;;;1.17;;
25437;SDS011;13364;49.084;9.978;2024-02-21T20:49:49;1.75;;;1.15;;
25437;SDS011;13364;49.084;9.978;2024-02-21T20:52:19;1.33;;;1.08;;
25437;SDS011;13364;49.084;9.978;2024-02-21T20:54:46;2.50;;;1.48;;
25437;SDS011;13364;49.084;9.978;2024-02-21T20:57:13;1.95;;;1.40;;
25437;SDS011;13364;49.084;9.978;2024-02-21T20:59:39;1.67;;;0.98;;
25437;SDS011;13364;49.084;9.978;2024-02-21T21:02:06;4.45;;;2.13;;
25437;SDS011;13364;49.084;9.978;2024-02-21T21:04:33;5.32;;;2.40;;
25437;SDS011;13364;49.084;9.978;2024-02-21T21:07:00;9.52;;;2.50;;
25437;SDS011;13364;49.084;9.978;2024-02-21T21:09:28;3.22;;;1.60;;
25437;SDS011;13364;49.084;9.978;2024-02-21T21:11:55;3.78;;;1.38;;
25437;SDS011;13364;49.084;9.978;2024-02-21T21:14:22;1.60;;;1.30;;
25437;SDS011;13364;49.084;9.978;2024-02-21T21:16:49;1.92;;;1.30;;
25437;SDS011;13364;49.084;9.978;2024-02-21T21:19:17;1.70;;;1.10;;
25437;SDS011;13364;49.084;9.978;2024-02-21T21:21:44;4.78;;;1.40;;
25437;SDS011;13364;49.084;9.978;2024-02-21T21:24:12;1.02;;;0.98;;
25437;SDS011;13364;49.084;9.978;2024-02-21T21:26:39;2.65;;;1.05;;
25437;SDS011;13364;49.084;9.978;2024-02-21T21:29:06;1.30;;;1.08;;
25437;SDS011;13364;49.084;9.978;2024-02-21T21:31:33;2.60;;;0.98;;
25437;SDS011;13364;49.084;9.978;2024-02-21T21:34:00;1.73;;;1.05;;
25437;SDS011;13364;49.084;9.978;2024-02-21T21:36:27;1.02;;;0.88;;
25437;SDS011;13364;49.084;9.978;2024-02-21T21:38:54;1.45;;;1.17;;
25437;SDS011;13364;49.084;9.978;2024-02-21T21:41:21;1.25;;;0.88;;
25437;SDS011;13364;49.084;9.978;2024-02-21T21:43:50;2.03;;;0.82;;
25437;SDS011;13364;49.084;9.978;2024-02-21T21:46:16;2.70;;;1.00;;
25437;SDS011;13364;49.084;9.978;2024-02-21T21:48:43;1.52;;;0.63;;
25437;SDS011;13364;49.084;9.978;2024-02-21T21:51:10;0.68;;;0.68;;
25437;SDS011;13364;49.084;9.978;2024-02-21T21:53:37;1.02;;;0.70;;
25437;SDS011;13364;49.084;9.978;2024-02-21T21:56:06;0.57;;;0.57;;